UHHH/KHV METAR and TAF weather

Enter ICAO airport designator
Station Type Date Time Source
UHHH METAR 2019/12/11 12:00 UTC NOAA

UHHH 111200Z 26002MPS CAVOK M16/M22 Q1012 R23L/090060 NOSIG RMK QFE752/1003


Station Type Date Time Source
UHHH Decoded METAR 2019/12/11 12:00 UTC NOAA

Habarovsk, Russia (UHHH) 48-31N 135-10E 76M
Dec 11, 2019 - 07:00 AM EST / 2019.12.11 1200 UTC
Wind: from the W (260 degrees) at 4 MPH (4 KT):0
Visibility: greater than 7 mile(s):0
Temperature: 3 F (-16 C)
Dew Point: -7 F (-22 C)
Relative Humidity: 59%
Pressure (altimeter): 29.88 in. Hg (1012 hPa)
ob: UHHH 111200Z 26002MPS CAVOK M16/M22 Q1012 R23L/090060 NOSIG RMK QFE752/1003
cycle: 12

Station Type Date Time Source
UHHH TAF 2019/12/11 12:21 UTC NOAA

TAF UHHH 111047Z 1112/1218 33003MPS 9999 SCT020
TEMPO 1112/1121 02003MPS 3100 -SN BR BKN011 BKN020
FM120200 26003MPS 9999 NSC
TEMPO 1202/1210 26008MPS 3100 -SN SCT015

Example: see airport list